Blue Diamond, Nevada
Current Conditions -  °F | °C
As of 1:56 AM on Sunday 21 Dec 2014 (Local Time) from KLAS Reporting Station
Scattered Clouds Scattered Clouds  
Wind Chill: 40°   Ceiling: Unl
Heat Index: 44°   Visibility: 10mi
Dew Point: 36°   Wind: 8mph
Humidity: 73%   Direction: 190°S
Pressure: 30.12"   Gusts: NA
Location:  36.05°N, 115.41°W
Report Text: KLAS 210956Z 19007KT 10SM SCT250 07/02 A3012 RMK AO2 SLP198 T00670022
Loading
Personal Weather Stations






























Interactive Weather Map New forecast layout! Learn more

10-Day Weather Forecast

Advertisements
Track Severe Weather on mobile